createdAt,value
2023-05-09T00:00:37.826Z,96671.47
2023-05-09T00:03:06.690Z,96663.75
2023-05-09T00:05:35.056Z,96669.91
2023-05-09T00:08:03.299Z,96657.84
2023-05-09T00:10:31.830Z,96657.84
2023-05-09T00:13:00.990Z,96647.88
2023-05-09T00:15:31.973Z,96646.03
2023-05-09T00:18:00.438Z,96643.38
2023-05-09T00:20:28.961Z,96648.69
2023-05-09T00:22:57.257Z,96648.75
2023-05-09T00:25:26.786Z,96643.66
2023-05-09T00:27:56.269Z,96639.66
2023-05-09T00:30:24.549Z,96639.25
2023-05-09T00:32:54.369Z,96643.41
2023-05-09T00:35:22.781Z,96651.72
2023-05-09T00:37:51.086Z,96647.19
2023-05-09T00:40:19.353Z,96648.19
2023-05-09T00:42:47.607Z,96647.03
2023-05-09T00:45:16.038Z,96638.97
2023-05-09T00:47:44.451Z,96639.34
2023-05-09T00:50:14.961Z,96629.25
2023-05-09T00:52:43.373Z,96629.66
2023-05-09T00:55:11.853Z,96625.13
2023-05-09T00:57:40.517Z,96628.78
2023-05-09T01:00:13.333Z,96629.59
2023-05-09T01:02:42.587Z,96621.97
2023-05-09T01:05:11.219Z,96611.84
2023-05-09T01:07:45.501Z,96611.78
2023-05-09T01:10:20.300Z,96606.41
2023-05-09T01:12:51.267Z,96604.78
2023-05-09T01:15:24.894Z,96601.78
2023-05-09T01:17:56.543Z,96601.38
2023-05-09T01:20:33.817Z,96598.56
2023-05-09T01:23:19.638Z,96594.81
2023-05-09T01:25:57.581Z,96592.09
2023-05-09T01:28:40.023Z,96600.59
2023-05-09T01:31:10.088Z,96594.81
2023-05-09T01:33:40.470Z,96598.72
2023-05-09T01:36:13.052Z,96598.13
2023-05-09T01:38:43.717Z,96590.25
2023-05-09T01:41:12.231Z,96592.97
2023-05-09T01:43:41.755Z,96592.47
2023-05-09T01:46:11.973Z,96600.19
2023-05-09T01:48:41.170Z,96596.84
2023-05-09T01:51:10.727Z,96597.03
2023-05-09T01:53:39.191Z,96604.56
2023-05-09T01:56:09.448Z,96600.88
2023-05-09T01:58:38.205Z,96604.72
2023-05-09T02:01:07.291Z,96595.03
2023-05-09T02:03:38.621Z,96599.38
2023-05-09T02:06:07.457Z,96598.13
2023-05-09T02:08:35.991Z,96595.03
2023-05-09T02:11:04.475Z,96584.63
2023-05-09T02:13:32.882Z,96582.53
2023-05-09T02:16:01.972Z,96580.72
2023-05-09T02:18:32.620Z,96586.91
2023-05-09T02:21:02.439Z,96576.81
2023-05-09T02:23:30.946Z,96580.63
2023-05-09T02:26:00.462Z,96577.00
2023-05-09T02:28:30.600Z,96578.63
2023-05-09T02:31:00.580Z,96580.06
2023-05-09T02:33:33.990Z,96578.44
2023-05-09T02:36:05.055Z,96577.78
2023-05-09T02:38:33.576Z,96570.97
2023-05-09T02:41:01.909Z,96574.13
2023-05-09T02:43:30.148Z,96575.75
2023-05-09T02:45:58.483Z,96579.06
2023-05-09T02:48:26.782Z,96578.34
2023-05-09T02:50:59.188Z,96579.41
2023-05-09T02:53:30.151Z,96574.28
2023-05-09T02:55:59.809Z,96574.31
2023-05-09T02:58:28.520Z,96575.34
2023-05-09T03:00:56.788Z,96570.00
2023-05-09T03:03:25.433Z,96570.38
2023-05-09T03:05:53.818Z,96569.09
2023-05-09T03:08:22.018Z,96569.16
2023-05-09T03:10:51.642Z,96562.72
2023-05-09T03:13:19.939Z,96556.78
2023-05-09T03:15:48.334Z,96552.88
2023-05-09T03:18:16.668Z,96553.28
2023-05-09T03:20:44.938Z,96554.53
2023-05-09T03:23:13.296Z,96552.88
2023-05-09T03:25:41.537Z,96553.09
2023-05-09T03:28:11.191Z,96551.44
2023-05-09T03:30:39.461Z,96558.22
2023-05-09T03:33:08.672Z,96556.81
2023-05-09T03:35:36.977Z,96549.19
2023-05-09T03:38:05.782Z,96547.09
2023-05-09T03:40:34.013Z,96543.81
2023-05-09T03:43:02.265Z,96543.78
2023-05-09T03:45:31.901Z,96547.66
2023-05-09T03:48:00.224Z,96542.34
2023-05-09T03:50:28.642Z,96538.81
2023-05-09T03:52:57.069Z,96541.72
2023-05-09T03:55:25.373Z,96549.56
2023-05-09T03:57:53.617Z,96540.09
2023-05-09T04:00:22.531Z,96548.50
2023-05-09T04:02:52.294Z,96546.22
2023-05-09T04:05:21.045Z,96547.00
2023-05-09T04:07:49.445Z,96552.06
2023-05-09T04:10:17.708Z,96552.88
2023-05-09T04:12:46.021Z,96559.25
2023-05-09T04:15:14.519Z,96563.00
2023-05-09T04:17:42.999Z,96560.72
2023-05-09T04:20:13.724Z,96560.09
2023-05-09T04:22:41.944Z,96550.31
2023-05-09T04:25:13.681Z,96551.47
2023-05-09T04:27:42.116Z,96558.84
2023-05-09T04:30:11.387Z,96556.47
2023-05-09T04:32:39.802Z,96558.78
2023-05-09T04:35:09.210Z,96556.94
2023-05-09T04:37:38.898Z,96547.63
2023-05-09T04:40:09.101Z,96558.97
2023-05-09T04:42:37.665Z,96552.81
2023-05-09T04:45:07.317Z,96554.09
2023-05-09T04:47:35.657Z,96547.63
2023-05-09T04:50:04.150Z,96541.53
2023-05-09T04:52:32.685Z,96539.97
2023-05-09T04:55:02.370Z,96537.56
2023-05-09T04:57:30.763Z,96532.94
2023-05-09T04:59:59.106Z,96527.66
2023-05-09T05:02:27.576Z,96531.22
2023-05-09T05:05:17.522Z,96530.16
2023-05-09T05:07:44.033Z,96532.75
2023-05-09T05:10:13.649Z,96538.31
2023-05-09T05:12:41.943Z,96539.28
2023-05-09T05:15:11.152Z,96524.00
2023-05-09T05:17:39.405Z,96524.88
2023-05-09T05:20:10.648Z,96525.41
2023-05-09T05:22:39.038Z,96523.28
2023-05-09T05:25:08.526Z,96532.16
2023-05-09T05:27:38.294Z,96530.41
2023-05-09T05:30:07.693Z,96523.44
2023-05-09T05:32:36.039Z,96535.41
2023-05-09T05:35:04.997Z,96525.22
2023-05-09T05:37:33.308Z,96524.06
2023-05-09T05:40:01.573Z,96526.03
2023-05-09T05:42:29.816Z,96533.41
2023-05-09T05:45:04.276Z,96525.22
2023-05-09T05:47:33.154Z,96532.19
2023-05-09T05:50:02.996Z,96533.22
2023-05-09T05:52:32.084Z,96545.19
2023-05-09T05:55:00.383Z,96544.66
2023-05-09T05:57:28.699Z,96538.41
2023-05-09T05:59:57.017Z,96537.00
2023-05-09T06:02:26.820Z,96535.59
2023-05-09T06:04:59.125Z,96542.56
2023-05-09T06:07:29.996Z,96524.13
2023-05-09T06:09:58.436Z,96528.34
2023-05-09T06:12:28.065Z,96528.44
2023-05-09T06:14:57.868Z,96523.69
2023-05-09T06:17:31.052Z,96513.22
2023-05-09T06:19:59.351Z,96514.09
2023-05-09T06:22:27.577Z,96517.59
2023-05-09T06:24:55.801Z,96517.47
2023-05-09T06:27:24.174Z,96517.47
2023-05-09T06:29:52.782Z,96515.78
2023-05-09T06:32:21.231Z,96510.28
2023-05-09T06:34:51.112Z,96502.31
2023-05-09T06:37:19.556Z,96502.34
2023-05-09T06:39:47.848Z,96503.31
2023-05-09T06:42:16.658Z,96496.09
2023-05-09T06:44:44.959Z,96493.13
2023-05-09T06:47:13.235Z,96489.97
2023-05-09T06:49:41.501Z,96473.84
2023-05-09T06:52:12.955Z,96475.91
2023-05-09T06:54:52.012Z,96463.88
2023-05-09T06:57:23.322Z,96466.94
2023-05-09T06:59:51.639Z,96456.44
2023-05-09T07:02:19.876Z,96457.00
2023-05-09T07:04:48.402Z,96458.78
2023-05-09T07:07:18.514Z,96466.69
2023-05-09T07:09:46.861Z,96460.13
2023-05-09T07:12:15.724Z,96460.78
2023-05-09T07:14:43.999Z,96464.78
2023-05-09T07:17:21.965Z,96463.06
2023-05-09T07:19:51.551Z,96463.16
2023-05-09T07:22:21.274Z,96464.47
2023-05-09T07:24:50.844Z,96459.56
2023-05-09T07:27:19.178Z,96452.06
2023-05-09T07:29:49.097Z,96436.63
2023-05-09T07:32:17.491Z,96454.53
2023-05-09T07:34:45.954Z,96437.69
2023-05-09T07:37:15.444Z,96443.63
2023-05-09T07:39:47.514Z,96437.69
2023-05-09T07:42:16.073Z,96437.56
2023-05-09T07:44:44.340Z,96427.50
2023-05-09T07:47:12.708Z,96418.28
2023-05-09T07:49:43.238Z,96426.00
2023-05-09T07:52:11.769Z,96419.91
2023-05-09T07:54:40.677Z,96417.22
2023-05-09T07:57:10.547Z,96414.84
2023-05-09T07:59:38.953Z,96418.31
2023-05-09T08:02:07.731Z,96409.38
2023-05-09T08:04:37.734Z,96407.78
2023-05-09T08:07:07.245Z,96409.03
2023-05-09T08:09:35.704Z,96410.88
2023-05-09T08:12:04.038Z,96409.84
2023-05-09T08:14:33.684Z,96405.19
2023-05-09T08:17:02.165Z,96407.97
2023-05-09T08:19:30.433Z,96399.34
2023-05-09T08:21:58.752Z,96395.66
2023-05-09T08:24:27.030Z,96397.63
2023-05-09T08:26:55.451Z,96392.31
2023-05-09T08:29:23.680Z,96384.38
2023-05-09T08:31:53.479Z,96381.38
2023-05-09T08:34:21.949Z,96380.41
2023-05-09T08:36:50.238Z,96385.72
2023-05-09T08:39:19.183Z,96377.38
2023-05-09T08:41:47.503Z,96379.50
2023-05-09T08:44:15.939Z,96371.25
2023-05-09T08:46:49.412Z,96363.13
2023-05-09T08:49:19.489Z,96362.72
2023-05-09T08:51:50.041Z,96356.66
2023-05-09T08:54:19.593Z,96363.22
2023-05-09T08:56:48.704Z,96357.13
2023-05-09T08:59:18.549Z,96353.03
2023-05-09T09:01:47.244Z,96360.13
2023-05-09T09:04:15.746Z,96355.94
2023-05-09T09:06:45.521Z,96349.00
2023-05-09T09:09:15.019Z,96348.13
2023-05-09T09:11:43.668Z,96353.53
2023-05-09T09:14:14.023Z,96349.78
2023-05-09T09:16:45.698Z,96343.41
2023-05-09T09:19:18.758Z,96336.19
2023-05-09T09:21:53.912Z,96332.47
2023-05-09T09:24:27.230Z,96335.81
2023-05-09T09:26:55.595Z,96323.50
2023-05-09T09:29:24.622Z,96312.50
2023-05-09T09:31:55.311Z,96317.66
2023-05-09T09:34:24.600Z,96310.47
2023-05-09T09:36:54.286Z,96308.91
2023-05-09T09:39:23.140Z,96307.16
2023-05-09T09:41:51.550Z,96293.84
2023-05-09T09:44:21.077Z,96299.69
2023-05-09T09:46:51.289Z,96296.38
2023-05-09T09:49:21.305Z,96292.91
2023-05-09T09:51:55.722Z,96281.09
2023-05-09T09:54:27.198Z,96274.63
2023-05-09T09:56:56.656Z,96268.78
2023-05-09T09:59:26.059Z,96272.97
2023-05-09T10:01:56.376Z,96261.19
2023-05-09T10:04:25.195Z,96267.97
2023-05-09T10:06:55.760Z,96268.78
2023-05-09T10:09:24.720Z,96263.41
2023-05-09T10:11:54.042Z,96258.19
2023-05-09T10:14:23.473Z,96245.59
2023-05-09T10:16:53.711Z,96254.78
2023-05-09T10:19:23.303Z,96252.75
2023-05-09T10:21:53.787Z,96244.47
2023-05-09T10:24:28.953Z,96253.81
2023-05-09T10:27:01.603Z,96242.28
2023-05-09T10:29:31.935Z,96233.16
2023-05-09T10:32:02.700Z,96220.19
2023-05-09T10:34:33.114Z,96221.03
2023-05-09T10:37:01.520Z,96216.25
2023-05-09T10:39:31.933Z,96222.31
2023-05-09T10:42:00.709Z,96211.34
2023-05-09T10:44:29.458Z,96206.09
2023-05-09T10:46:58.013Z,96202.63
2023-05-09T10:49:26.790Z,96198.69
2023-05-09T10:51:55.092Z,96192.63
2023-05-09T10:54:33.473Z,96192.16
2023-05-09T10:57:01.856Z,96186.59
2023-05-09T10:59:37.890Z,96183.69
2023-05-09T11:02:06.963Z,96184.00
2023-05-09T11:04:35.368Z,96168.53
2023-05-09T11:07:03.670Z,96171.75
2023-05-09T11:09:35.662Z,96165.56
2023-05-09T11:12:11.904Z,96158.50
2023-05-09T11:14:42.939Z,96146.69
2023-05-09T11:17:12.953Z,96161.19
2023-05-09T11:20:01.632Z,96149.78
2023-05-09T11:22:32.601Z,96138.66
2023-05-09T11:25:07.255Z,96136.22
2023-05-09T11:27:41.236Z,96115.53
2023-05-09T11:30:11.057Z,96115.69
2023-05-09T11:33:07.836Z,96104.38
2023-05-09T11:35:39.432Z,96103.56
2023-05-09T11:38:08.258Z,96100.41
2023-05-09T11:40:38.336Z,96100.31
2023-05-09T11:43:09.252Z,96093.22
2023-05-09T11:45:37.637Z,96095.91
2023-05-09T11:48:09.894Z,96084.88
2023-05-09T11:50:38.258Z,96077.53
2023-05-09T11:53:08.314Z,96075.16
2023-05-09T11:55:39.096Z,96080.31
2023-05-09T11:58:09.053Z,96075.44
2023-05-09T12:00:37.513Z,96075.09
2023-05-09T12:03:06.614Z,96067.66
2023-05-09T12:05:35.098Z,96057.25
2023-05-09T12:08:04.623Z,96068.00
2023-05-09T12:10:33.254Z,96069.41
2023-05-09T12:13:04.108Z,96059.38
2023-05-09T12:15:37.781Z,96045.31
2023-05-09T12:18:08.089Z,96034.88
2023-05-09T12:20:43.730Z,96044.31
2023-05-09T12:23:12.706Z,96040.63
2023-05-09T12:25:41.157Z,96032.06
2023-05-09T12:28:10.962Z,96018.66
2023-05-09T12:30:39.260Z,96019.97
2023-05-09T12:33:10.385Z,96017.81
2023-05-09T12:35:39.453Z,96011.03
2023-05-09T12:38:07.755Z,96018.69
2023-05-09T12:40:36.037Z,96009.84
2023-05-09T12:43:05.967Z,96009.63
2023-05-09T12:45:35.803Z,95998.47
2023-05-09T12:48:05.183Z,95999.03
2023-05-09T12:50:35.848Z,96005.47
2023-05-09T12:53:05.290Z,95994.50
2023-05-09T12:55:40.254Z,95988.41
2023-05-09T12:58:08.487Z,95981.41
2023-05-09T13:00:45.222Z,95975.09
2023-05-09T13:03:25.412Z,95973.69
2023-05-09T13:06:00.198Z,95971.03
2023-05-09T13:08:29.346Z,95962.38
2023-05-09T13:11:11.849Z,95961.44
2023-05-09T13:13:43.683Z,95954.97
2023-05-09T13:16:15.052Z,95943.03
2023-05-09T13:18:45.716Z,95950.25
2023-05-09T13:21:13.943Z,95939.78
2023-05-09T13:23:44.528Z,95937.59
2023-05-09T13:26:12.902Z,95934.34
2023-05-09T13:28:41.191Z,95928.59
2023-05-09T13:31:09.603Z,95925.53
2023-05-09T13:33:39.327Z,95919.25
2023-05-09T13:36:08.078Z,95907.75
2023-05-09T13:38:38.868Z,95907.34
2023-05-09T13:41:07.387Z,95908.28
2023-05-09T13:43:35.915Z,95897.00
2023-05-09T13:46:04.505Z,95901.44
2023-05-09T13:48:32.761Z,95899.41
2023-05-09T13:51:07.630Z,95883.16
2023-05-09T13:53:38.676Z,95886.28
2023-05-09T13:56:09.497Z,95882.34
2023-05-09T13:58:37.936Z,95876.75
2023-05-09T14:01:07.644Z,95876.13
2023-05-09T14:03:36.302Z,95866.84
2023-05-09T14:06:06.253Z,95870.00
2023-05-09T14:08:34.612Z,95875.09
2023-05-09T14:11:04.304Z,95863.38
2023-05-09T14:13:33.147Z,95861.25
2023-05-09T14:16:01.803Z,95863.13
2023-05-09T14:18:30.199Z,95857.88
2023-05-09T14:20:58.630Z,95853.69
2023-05-09T14:23:28.561Z,95859.66
2023-05-09T14:25:59.751Z,95854.44
2023-05-09T14:28:29.429Z,95854.91
2023-05-09T14:30:58.344Z,95849.16
2023-05-09T14:33:27.565Z,95842.25
2023-05-09T14:35:56.492Z,95839.03
2023-05-09T14:38:24.764Z,95835.72
2023-05-09T14:40:54.438Z,95828.84
2023-05-09T14:43:23.179Z,95824.97
2023-05-09T14:45:53.150Z,95828.28
2023-05-09T14:48:22.182Z,95821.22
2023-05-09T14:50:53.537Z,95814.59
2023-05-09T14:53:22.608Z,95808.66
2023-05-09T14:55:50.905Z,95807.34
2023-05-09T14:58:20.699Z,95802.69
2023-05-09T15:00:49.256Z,95807.97
2023-05-09T15:03:17.968Z,95803.69
2023-05-09T15:05:46.438Z,95793.97
2023-05-09T15:08:14.701Z,95785.44
2023-05-09T15:10:48.469Z,95785.16
2023-05-09T15:13:17.007Z,95778.78
2023-05-09T15:15:47.294Z,95780.94
2023-05-09T15:18:16.962Z,95782.63
2023-05-09T15:20:45.424Z,95781.28
2023-05-09T15:23:14.170Z,95779.59
2023-05-09T15:25:43.745Z,95776.38
2023-05-09T15:28:12.118Z,95775.31
2023-05-09T15:30:41.542Z,95772.81
2023-05-09T15:33:11.475Z,95770.81
2023-05-09T15:35:40.029Z,95764.22
2023-05-09T15:38:12.026Z,95766.06
2023-05-09T15:40:41.305Z,95750.91
2023-05-09T15:43:09.739Z,95754.44
2023-05-09T15:45:38.865Z,95746.59
2023-05-09T15:48:07.499Z,95747.25
2023-05-09T15:50:38.436Z,95741.72
2023-05-09T15:53:07.006Z,95744.78
2023-05-09T15:55:35.484Z,95747.25
2023-05-09T15:58:03.923Z,95740.63
2023-05-09T16:00:32.276Z,95736.22
2023-05-09T16:03:00.731Z,95736.56
2023-05-09T16:05:29.178Z,95724.22
2023-05-09T16:07:58.820Z,95724.28
2023-05-09T16:10:27.281Z,95727.78
2023-05-09T16:12:59.830Z,95727.66
2023-05-09T16:15:28.238Z,95716.88
2023-05-09T16:17:57.604Z,95718.88
2023-05-09T16:20:26.261Z,95721.00
2023-05-09T16:22:54.628Z,95717.22
2023-05-09T16:25:35.304Z,95714.41
2023-05-09T16:28:15.329Z,95711.00
2023-05-09T16:30:44.416Z,95704.97
2023-05-09T16:33:13.009Z,95694.34
2023-05-09T16:35:46.087Z,95696.28
2023-05-09T16:38:14.593Z,95688.84
2023-05-09T16:40:44.333Z,95681.50
2023-05-09T16:43:12.676Z,95680.25
2023-05-09T16:45:56.387Z,95682.19
2023-05-09T16:48:24.686Z,95674.72
2023-05-09T16:50:53.703Z,95674.34
2023-05-09T16:53:37.045Z,95673.53
2023-05-09T16:56:07.938Z,95680.59
2023-05-09T16:58:36.817Z,95677.19
2023-05-09T17:01:05.702Z,95677.13
2023-05-09T17:03:34.252Z,95667.66
2023-05-09T17:06:02.470Z,95656.13
2023-05-09T17:08:30.732Z,95669.84
2023-05-09T17:10:59.079Z,95665.88
2023-05-09T17:13:28.870Z,95654.50
2023-05-09T17:15:57.535Z,95652.34
2023-05-09T17:18:36.661Z,95650.50
2023-05-09T17:21:06.595Z,95655.84
2023-05-09T17:23:34.852Z,95655.84
2023-05-09T17:26:03.797Z,95652.72
2023-05-09T17:28:33.450Z,95641.34
2023-05-09T17:31:03.333Z,95640.84
2023-05-09T17:33:31.634Z,95638.66
2023-05-09T17:36:00.527Z,95648.91
2023-05-09T17:38:29.134Z,95636.22
2023-05-09T17:40:57.440Z,95641.06
2023-05-09T17:43:27.818Z,95637.84
2023-05-09T17:45:57.205Z,95633.97
2023-05-09T17:48:25.548Z,95640.72
2023-05-09T17:50:54.431Z,95634.75
2023-05-09T17:53:27.593Z,95632.69
2023-05-09T17:55:56.076Z,95624.06
2023-05-09T17:58:24.326Z,95618.22
2023-05-09T18:00:53.960Z,95616.88
2023-05-09T18:03:23.624Z,95625.47
2023-05-09T18:05:51.985Z,95627.75
2023-05-09T18:08:20.300Z,95627.75
2023-05-09T18:10:49.090Z,95617.31
2023-05-09T18:13:17.798Z,95610.56
2023-05-09T18:15:46.333Z,95605.97
2023-05-09T18:18:16.638Z,95607.47
2023-05-09T18:20:47.816Z,95607.03
2023-05-09T18:23:16.714Z,95608.97
2023-05-09T18:25:44.950Z,95600.13
2023-05-09T18:28:15.181Z,95605.72
2023-05-09T18:30:44.355Z,95601.19
2023-05-09T18:33:49.297Z,95604.91
2023-05-09T18:36:31.830Z,95603.16
2023-05-09T18:39:08.927Z,95592.91
2023-05-09T18:41:37.317Z,95591.00
2023-05-09T18:44:27.769Z,95597.88
2023-05-09T18:46:59.089Z,95594.63
2023-05-09T18:49:49.558Z,95592.44
2023-05-09T18:52:20.571Z,95595.38
2023-05-09T18:54:49.406Z,95588.66
2023-05-09T18:57:19.217Z,95590.22
2023-05-09T18:59:47.610Z,95583.75
2023-05-09T19:02:15.916Z,95574.28
2023-05-09T19:04:46.049Z,95579.94
2023-05-09T19:07:15.088Z,95580.25
2023-05-09T19:09:44.750Z,95585.63
2023-05-09T19:12:13.069Z,95589.66
2023-05-09T19:14:41.370Z,95581.28
2023-05-09T19:17:10.844Z,95578.53
2023-05-09T19:19:39.837Z,95573.78
2023-05-09T19:22:08.794Z,95583.81
2023-05-09T19:24:37.557Z,95576.13
2023-05-09T19:27:07.902Z,95576.44
2023-05-09T19:29:36.730Z,95576.72
2023-05-09T19:32:07.784Z,95579.13
2023-05-09T19:34:37.006Z,95581.75
2023-05-09T19:37:05.958Z,95582.41
2023-05-09T19:39:34.218Z,95594.31
2023-05-09T19:42:02.861Z,95591.34
2023-05-09T19:44:33.994Z,95591.38
2023-05-09T19:47:05.460Z,95600.72
2023-05-09T19:49:42.804Z,95601.06
2023-05-09T19:52:13.951Z,95585.09
2023-05-09T19:54:42.290Z,95592.72
2023-05-09T19:57:10.663Z,95592.41
2023-05-09T19:59:40.425Z,95586.09
2023-05-09T20:02:09.627Z,95584.34
2023-05-09T20:04:38.226Z,95581.06
2023-05-09T20:07:06.579Z,95577.81
2023-05-09T20:09:34.810Z,95588.38
2023-05-09T20:12:03.756Z,95586.47
2023-05-09T20:14:32.336Z,95587.78
2023-05-09T20:17:01.992Z,95591.91
2023-05-09T20:19:30.400Z,95582.91
2023-05-09T20:21:58.652Z,95589.44
2023-05-09T20:24:26.954Z,95593.28
2023-05-09T20:26:55.628Z,95599.78
2023-05-09T20:29:25.104Z,95598.69
2023-05-09T20:31:53.471Z,95593.50
2023-05-09T20:34:24.608Z,95594.69
2023-05-09T20:36:53.857Z,95596.22
2023-05-09T20:39:23.050Z,95592.16
2023-05-09T20:41:52.389Z,95596.47
2023-05-09T20:44:20.781Z,95584.00
2023-05-09T20:46:49.283Z,95599.72
2023-05-09T20:49:17.501Z,95598.00
2023-05-09T20:51:47.129Z,95595.66
2023-05-09T20:54:15.427Z,95592.59
2023-05-09T20:56:43.724Z,95594.34
2023-05-09T20:59:12.034Z,95597.84
2023-05-09T21:01:40.621Z,95597.47
2023-05-09T21:04:09.556Z,95598.50
2023-05-09T21:06:37.933Z,95607.38
2023-05-09T21:09:08.967Z,95618.66
2023-05-09T21:11:38.340Z,95616.28
2023-05-09T21:14:07.025Z,95665.00
2023-05-09T21:16:35.627Z,95696.69
2023-05-09T21:19:05.248Z,95707.53
2023-05-09T21:21:34.104Z,95681.78
2023-05-09T21:24:04.242Z,95692.88
2023-05-09T21:26:33.882Z,95695.91
2023-05-09T21:29:02.415Z,95686.94
2023-05-09T21:31:31.347Z,95678.69
2023-05-09T21:34:00.125Z,95677.34
2023-05-09T21:36:28.422Z,95672.84
2023-05-09T21:38:56.946Z,95669.88
2023-05-09T21:41:25.202Z,95677.03
2023-05-09T21:43:54.876Z,95675.16
2023-05-09T21:46:23.207Z,95685.84
2023-05-09T21:48:51.573Z,95682.59
2023-05-09T21:51:20.285Z,95690.75
2023-05-09T21:53:48.539Z,95692.88
2023-05-09T21:56:16.834Z,95686.63
2023-05-09T21:58:45.091Z,95700.28
2023-05-09T22:01:16.476Z,95699.31
2023-05-09T22:03:44.896Z,95691.28
2023-05-09T22:06:13.514Z,95692.25
2023-05-09T22:08:41.811Z,95693.09
2023-05-09T22:11:10.950Z,95692.28
2023-05-09T22:13:40.240Z,95693.75
2023-05-09T22:16:08.903Z,95691.25
2023-05-09T22:18:38.575Z,95700.44
2023-05-09T22:21:07.062Z,95699.88
2023-05-09T22:23:35.634Z,95714.59
2023-05-09T22:26:03.882Z,95708.19
2023-05-09T22:28:32.145Z,95698.91
2023-05-09T22:31:00.375Z,95693.06
2023-05-09T22:33:29.222Z,95687.97
2023-05-09T22:35:58.802Z,95682.13
2023-05-09T22:38:27.204Z,95689.06
2023-05-09T22:40:55.445Z,95680.53
2023-05-09T22:43:25.424Z,95679.63
2023-05-09T22:45:56.981Z,95679.59
2023-05-09T22:48:25.269Z,95680.91
2023-05-09T22:50:53.657Z,95670.69
2023-05-09T22:53:23.366Z,95687.91
2023-05-09T22:55:52.561Z,95690.28
2023-05-09T22:58:20.780Z,95684.16
2023-05-09T23:00:49.048Z,95686.28
2023-05-09T23:03:32.281Z,95685.78
2023-05-09T23:06:00.830Z,95686.91
2023-05-09T23:08:30.481Z,95699.22
2023-05-09T23:10:58.764Z,95687.28
2023-05-09T23:13:27.118Z,95682.88
2023-05-09T23:15:55.477Z,95677.94
2023-05-09T23:18:23.873Z,95685.81
2023-05-09T23:20:52.230Z,95680.34
2023-05-09T23:23:20.541Z,95673.88
2023-05-09T23:25:50.177Z,95675.50
2023-05-09T23:28:20.164Z,95670.47
2023-05-09T23:30:48.445Z,95672.00
2023-05-09T23:33:16.792Z,95670.00
2023-05-09T23:35:45.032Z,95669.88
2023-05-09T23:38:13.336Z,95661.88
2023-05-09T23:40:41.615Z,95667.06
2023-05-09T23:43:11.220Z,95664.81
2023-05-09T23:45:41.049Z,95666.03
2023-05-09T23:48:09.594Z,95659.34
2023-05-09T23:50:45.550Z,95663.81
2023-05-09T23:53:15.318Z,95666.75
2023-05-09T23:55:43.624Z,95664.66
2023-05-09T23:58:13.451Z,95665.78
